Janet — 9HSL8 — position and weather

sailwx.info

Track history (hours):
 
Tides and Currents Weather Stations Pressure Air Temp Water Temp Dewpoint Dewpoint Depression Visibility Wind Speed Wind Dir Waves Ship Positions

Janet

Last reported at 2014-Jul-25 20:33 UTC. Time now 2014-Jul-25 20:42 UTC.
Position N 53°57' E 011°25'.

Length 90 m; draft 5.9 m.

Type: Cargo ship. MMSI: 256371000.

Date/timePositionNaut miles runAvg speedWind from/ knotsBaromVisibWave heightAir tempDewpointWater temp
2014-Jul-25 20:33N 53°57' E 011°25'3 3.1
2014-Jul-25 19:32N 53°54' E 011°28'0 0.0
2014-Jul-25 18:32N 53°54' E 011°28'0 0.0
2014-Jul-25 17:32N 53°54' E 011°28'0 0.0
2014-Jul-25 16:29N 53°54' E 011°28'0 0.0
2014-Jul-25 15:32N 53°54' E 011°28'0 0.0
2014-Jul-25 14:32N 53°54' E 011°28'0 0.0
2014-Jul-25 13:32N 53°54' E 011°28'0 0.0
2014-Jul-25 12:32N 53°54' E 011°28'0 0.0
2014-Jul-25 11:32N 53°54' E 011°28'0 0.0
2014-Jul-25 10:32N 53°54' E 011°28'0 0.0
2014-Jul-25 09:32N 53°54' E 011°28'0 0.0
2014-Jul-25 08:32N 53°54' E 011°28'0 0.0
2014-Jul-25 07:32N 53°54' E 011°28'0 0.0
2014-Jul-25 06:32N 53°54' E 011°28'0 0.0
2014-Jul-25 05:32N 53°54' E 011°28'0 0.0
2014-Jul-25 04:32N 53°54' E 011°28'0 0.0
2014-Jul-25 03:32N 53°54' E 011°28'0 0.0
2014-Jul-25 02:32N 53°54' E 011°28'0 0.0
2014-Jul-25 01:32N 53°54' E 011°28'0 0.0
2014-Jul-25 00:32N 53°54' E 011°28'0 0.0
2014-Jul-24 23:32N 53°54' E 011°28'0 0.0
2014-Jul-24 22:32N 53°54' E 011°28'0 0.0
2014-Jul-24 21:32N 53°54' E 011°28'0 0.0
2014-Jul-24 20:32N 53°54' E 011°28'0 0.0
2014-Jul-24 19:32N 53°54' E 011°28'0 0.0
2014-Jul-24 18:32N 53°54' E 011°28'0 0.0
2014-Jul-24 17:32N 53°54' E 011°28'5 4.9
2014-Jul-24 16:33N 53°58' E 011°22'7 7.0
2014-Jul-24 15:33N 54°04' E 011°27'3 3.1
2014-Jul-24 14:33N 54°06' E 011°22'0 0.0
2014-Jul-24 13:33N 54°06' E 011°22'0 0.0
2014-Jul-24 12:33N 54°06' E 011°22'0 0.0
2014-Jul-24 11:33N 54°06' E 011°22'0 0.0
2014-Jul-24 10:33N 54°06' E 011°22'0 0.0
2014-Jul-24 09:33N 54°06' E 011°22'0 0.0
2014-Jul-24 08:33N 54°06' E 011°22'0 0.0
2014-Jul-24 07:33N 54°06' E 011°22'0 0.0
2014-Jul-24 06:33N 54°06' E 011°22'0 0.0
2014-Jul-24 05:33N 54°06' E 011°22'0 0.0
2014-Jul-24 04:33N 54°06' E 011°22'6 6.2
2014-Jul-24 03:33N 54°12' E 011°24'8 7.8
2014-Jul-24 02:33N 54°20' E 011°23'8 8.0
2014-Jul-24 01:33N 54°28' E 011°22'8 7.6
2014-Jul-24 00:33N 54°34' E 011°14'8 7.7
2014-Jul-23 23:30N 54°35' E 011°00'38 7.5
2014-Jul-23 18:28N 54°57' E 010°08'8 8.6
2014-Jul-23 17:33N 55°04' E 010°00'9 8.9
2014-Jul-23 16:33N 55°10' E 009°49'  
2014-Jul-18 05:25N 55°21' E 009°46'7 7.6
2014-Jul-18 04:31N 55°15' E 009°48'72 5.8
2014-Jul-17 16:05N 54°05' E 009°19'4 7.8
2014-Jul-17 15:33N 54°01' E 009°18'5 4.9
2014-Jul-17 14:33N 53°56' E 009°13'4 3.7
2014-Jul-17 13:30N 53°54' E 009°09'4 3.8
2014-Jul-17 12:33N 53°52' E 009°03'10 9.9
2014-Jul-17 11:34N 53°50' E 008°47'10 9.6
2014-Jul-17 10:33N 53°58' E 008°36'10 9.6
2014-Jul-17 09:29N 53°60' E 008°19'1010.3
2014-Jul-17 08:33N 53°59' E 008°02'10 9.9
2014-Jul-17 07:33N 53°57' E 007°46'10 9.6
2014-Jul-17 06:33N 53°55' E 007°30'39 9.6
2014-Jul-17 02:30N 53°45' E 006°26'1010.2
2014-Jul-17 01:30N 53°42' E 006°10'1010.5
2014-Jul-17 00:33N 53°39' E 005°54'1010.4
2014-Jul-16 23:33N 53°35' E 005°37'1110.9
2014-Jul-16 22:34N 53°32' E 005°20'1111.2
2014-Jul-16 21:33N 53°28' E 005°02'4812.1
2014-Jul-16 17:33N 52°50' E 004°13'1211.8
2014-Jul-16 16:31N 52°40' E 004°00'1111.1
2014-Jul-16 15:33N 52°32' E 003°48'1210.2
2014-Jul-16 14:25N 52°24' E 003°34'10 9.8
2014-Jul-16 13:26N 52°18' E 003°23'9 9.4
2014-Jul-16 12:27N 52°11' E 003°13'8 8.9
2014-Jul-16 11:32N 52°05' E 003°03'20 8.9
2014-Jul-16 09:20N 51°50' E 002°43'8 9.8
2014-Jul-16 08:34N 51°45' E 002°35'1210.5
2014-Jul-16 07:26N 51°35' E 002°23'1011.2
2014-Jul-16 06:33N 51°27' E 002°14'1111.5
2014-Jul-16 05:33N 51°17' E 002°06'1211.8
2014-Jul-16 04:33N 51°10' E 001°51'1413.5
2014-Jul-16 03:29N 51°01' E 001°33'1413.3
2014-Jul-16 02:26N 50°49' E 001°22'1112.2
2014-Jul-16 01:34N 50°39' E 001°14'1412.0
2014-Jul-16 00:22N 50°30' E 000°56'1012.5
2014-Jul-15 23:32N 50°27' E 000°41'1313.1
2014-Jul-15 22:33N 50°24' E 000°21'1312.8
2014-Jul-15 21:33N 50°20' E 000°02'  
Track history (hours):
 
Tides and Currents Weather Stations Pressure Air Temp Water Temp Dewpoint Dewpoint Depression Visibility Wind Speed Wind Dir Waves Ship Positions

Janet

Last reported at 2014-Jul-25 20:33 UTC. Time now 2014-Jul-25 20:42 UTC.
Position N 53°57' E 011°25'.

Length 90 m; draft 5.9 m.

Type: Cargo ship. MMSI: 256371000.

Date/timePositionNaut miles runAvg speedWind from/ knotsBaromVisibWave heightAir tempDewpointWater temp
2014-Jul-25 20:33N 53°57' E 011°25'3 3.1
2014-Jul-25 19:32N 53°54' E 011°28'0 0.0
2014-Jul-25 18:32N 53°54' E 011°28'0 0.0
2014-Jul-25 17:32N 53°54' E 011°28'0 0.0
2014-Jul-25 16:29N 53°54' E 011°28'0 0.0
2014-Jul-25 15:32N 53°54' E 011°28'0 0.0
2014-Jul-25 14:32N 53°54' E 011°28'0 0.0
2014-Jul-25 13:32N 53°54' E 011°28'0 0.0
2014-Jul-25 12:32N 53°54' E 011°28'0 0.0
2014-Jul-25 11:32N 53°54' E 011°28'0 0.0
2014-Jul-25 10:32N 53°54' E 011°28'0 0.0
2014-Jul-25 09:32N 53°54' E 011°28'0 0.0
2014-Jul-25 08:32N 53°54' E 011°28'0 0.0
2014-Jul-25 07:32N 53°54' E 011°28'0 0.0
2014-Jul-25 06:32N 53°54' E 011°28'0 0.0
2014-Jul-25 05:32N 53°54' E 011°28'0 0.0
2014-Jul-25 04:32N 53°54' E 011°28'0 0.0
2014-Jul-25 03:32N 53°54' E 011°28'0 0.0
2014-Jul-25 02:32N 53°54' E 011°28'0 0.0
2014-Jul-25 01:32N 53°54' E 011°28'0 0.0
2014-Jul-25 00:32N 53°54' E 011°28'0 0.0
2014-Jul-24 23:32N 53°54' E 011°28'0 0.0
2014-Jul-24 22:32N 53°54' E 011°28'0 0.0
2014-Jul-24 21:32N 53°54' E 011°28'0 0.0
2014-Jul-24 20:32N 53°54' E 011°28'0 0.0
2014-Jul-24 19:32N 53°54' E 011°28'0 0.0
2014-Jul-24 18:32N 53°54' E 011°28'0 0.0
2014-Jul-24 17:32N 53°54' E 011°28'5 4.9
2014-Jul-24 16:33N 53°58' E 011°22'7 7.0
2014-Jul-24 15:33N 54°04' E 011°27'3 3.1
2014-Jul-24 14:33N 54°06' E 011°22'0 0.0
2014-Jul-24 13:33N 54°06' E 011°22'0 0.0
2014-Jul-24 12:33N 54°06' E 011°22'0 0.0
2014-Jul-24 11:33N 54°06' E 011°22'0 0.0
2014-Jul-24 10:33N 54°06' E 011°22'0 0.0
2014-Jul-24 09:33N 54°06' E 011°22'0 0.0
2014-Jul-24 08:33N 54°06' E 011°22'0 0.0
2014-Jul-24 07:33N 54°06' E 011°22'0 0.0
2014-Jul-24 06:33N 54°06' E 011°22'0 0.0
2014-Jul-24 05:33N 54°06' E 011°22'0 0.0
2014-Jul-24 04:33N 54°06' E 011°22'6 6.2
2014-Jul-24 03:33N 54°12' E 011°24'8 7.8
2014-Jul-24 02:33N 54°20' E 011°23'8 8.0
2014-Jul-24 01:33N 54°28' E 011°22'8 7.6
2014-Jul-24 00:33N 54°34' E 011°14'8 7.7
2014-Jul-23 23:30N 54°35' E 011°00'38 7.5
2014-Jul-23 18:28N 54°57' E 010°08'8 8.6
2014-Jul-23 17:33N 55°04' E 010°00'9 8.9
2014-Jul-23 16:33N 55°10' E 009°49'  
2014-Jul-18 05:25N 55°21' E 009°46'7 7.6
2014-Jul-18 04:31N 55°15' E 009°48'72 5.8
2014-Jul-17 16:05N 54°05' E 009°19'4 7.8
2014-Jul-17 15:33N 54°01' E 009°18'5 4.9
2014-Jul-17 14:33N 53°56' E 009°13'4 3.7
2014-Jul-17 13:30N 53°54' E 009°09'4 3.8
2014-Jul-17 12:33N 53°52' E 009°03'10 9.9
2014-Jul-17 11:34N 53°50' E 008°47'10 9.6
2014-Jul-17 10:33N 53°58' E 008°36'10 9.6
2014-Jul-17 09:29N 53°60' E 008°19'1010.3
2014-Jul-17 08:33N 53°59' E 008°02'10 9.9
2014-Jul-17 07:33N 53°57' E 007°46'10 9.6
2014-Jul-17 06:33N 53°55' E 007°30'39 9.6
2014-Jul-17 02:30N 53°45' E 006°26'1010.2
2014-Jul-17 01:30N 53°42' E 006°10'1010.5
2014-Jul-17 00:33N 53°39' E 005°54'1010.4
2014-Jul-16 23:33N 53°35' E 005°37'1110.9
2014-Jul-16 22:34N 53°32' E 005°20'1111.2
2014-Jul-16 21:33N 53°28' E 005°02'4812.1
2014-Jul-16 17:33N 52°50' E 004°13'1211.8
2014-Jul-16 16:31N 52°40' E 004°00'1111.1
2014-Jul-16 15:33N 52°32' E 003°48'1210.2
2014-Jul-16 14:25N 52°24' E 003°34'10 9.8
2014-Jul-16 13:26N 52°18' E 003°23'9 9.4
2014-Jul-16 12:27N 52°11' E 003°13'8 8.9
2014-Jul-16 11:32N 52°05' E 003°03'20 8.9
2014-Jul-16 09:20N 51°50' E 002°43'8 9.8
2014-Jul-16 08:34N 51°45' E 002°35'1210.5
2014-Jul-16 07:26N 51°35' E 002°23'1011.2
2014-Jul-16 06:33N 51°27' E 002°14'1111.5
2014-Jul-16 05:33N 51°17' E 002°06'1211.8
2014-Jul-16 04:33N 51°10' E 001°51'1413.5
2014-Jul-16 03:29N 51°01' E 001°33'1413.3
2014-Jul-16 02:26N 50°49' E 001°22'1112.2
2014-Jul-16 01:34N 50°39' E 001°14'1412.0
2014-Jul-16 00:22N 50°30' E 000°56'1012.5
2014-Jul-15 23:32N 50°27' E 000°41'1313.1
2014-Jul-15 22:33N 50°24' E 000°21'1312.8
2014-Jul-15 21:33N 50°20' E 000°02'  

Dump ship's entire track history